Sterling Junction, Massachusetts
Current Conditions -  °F | °C
As of 3:52 PM on Tuesday 25 Nov 2014 (Local Time) from KFIT Reporting Station
Clear Clear  
Wind Chill: 55°   Ceiling: Unl
Heat Index: 55°   Visibility: 10mi
Dew Point: 29°   Wind: 5mph
Humidity: 37%   Direction: 210°SSW
Pressure: 29.92"   Gusts: NA
Location:  42.441°N, 71.7743°W
Report Text: KFIT 252052Z AUTO 21004KT 10SM CLR 13/M02 A2992 RMK AO2 SLP131 T01281017 53013
Loading
Personal Weather Stations






























Interactive Weather Map New forecast layout! Learn more

10-Day Weather Forecast

Advertisements
Track Severe Weather on mobile